Time;durP1;ratioP1;P1;durP2;ratioP2;P2;SDS_P1;SDS_P2;PMS_P1;PMS_P2;Temp;Humidity;BMP_temperature;BMP_pressure;BME280_temperature;BME280_humidity;BME280_pressure;Samples;Min_cycle;Max_cycle;Signal;HPM_P1;HPM_P2
2021/01/03 00:02:03;;;;;;;1999.90;999.90;;;;;;;-2.89;100.00;102374.90;1652809;86;21243;-84
2021/01/03 00:04:31;;;;;;;1999.90;999.90;;;;;;;-2.97;100.00;102369.00;1653178;86;21033;-86
2021/01/03 00:06:59;;;;;;;1999.90;999.90;;;;;;;-3.02;100.00;102367.33;1656581;86;21172;-85
2021/01/03 00:09:27;;;;;;;1999.90;999.90;;;;;;;-3.08;100.00;102374.80;1647554;85;21120;-86
2021/01/03 00:11:55;;;;;;;1999.90;999.90;;;;;;;-3.08;100.00;102378.36;1646057;86;21247;-86
2021/01/03 00:14:23;;;;;;;1999.90;999.90;;;;;;;-3.07;100.00;102385.46;1646720;86;21189;-86
2021/01/03 00:16:55;;;;;;;1999.90;999.90;;;;;;;-3.06;100.00;102388.51;1645548;86;21193;-86
2021/01/03 00:19:23;;;;;;;1999.90;999.90;;;;;;;-3.06;100.00;102380.89;1635876;83;21112;-86
2021/01/03 00:21:51;;;;;;;1999.90;999.90;;;;;;;-3.07;100.00;102385.46;1669221;84;21217;-86
2021/01/03 00:24:19;;;;;;;1999.90;999.90;;;;;;;-3.08;100.00;102382.42;1669939;84;22636;-86
2021/01/03 00:26:47;;;;;;;1999.90;999.90;;;;;;;-3.09;100.00;102391.56;1661200;84;21210;-85
2021/01/03 00:29:18;;;;;;;1999.90;999.90;;;;;;;-3.10;100.00;102392.58;1673884;83;21700;-86
2021/01/03 00:31:47;;;;;;;1999.90;999.90;;;;;;;-3.10;100.00;102395.30;1663239;84;21215;-86
2021/01/03 00:34:16;;;;;;;1999.90;999.90;;;;;;;-3.12;100.00;102391.91;1665697;84;21140;-86
2021/01/03 00:36:44;;;;;;;1999.90;999.90;;;;;;;-3.15;100.00;102386.84;1670566;83;21388;-85
2021/01/03 00:39:12;;;;;;;1999.90;999.90;;;;;;;-3.23;100.00;102384.16;1661080;85;21060;-86
2021/01/03 00:41:40;;;;;;;1999.90;999.90;;;;;;;-3.28;100.00;102375.70;1656084;85;21183;-86
2021/01/03 00:44:08;;;;;;;1999.90;999.90;;;;;;;-3.29;100.00;102386.20;1657755;84;21200;-86
2021/01/03 00:46:36;;;;;;;1999.90;999.90;;;;;;;-3.30;100.00;102384.52;1661121;85;21730;-86
2021/01/03 00:49:04;;;;;;;1999.90;999.90;;;;;;;-3.27;100.00;102374.19;1655948;85;21388;-86
2021/01/03 00:51:32;;;;;;;1999.90;999.90;;;;;;;-3.25;100.00;102382.98;1658432;85;21199;-86
2021/01/03 00:54:00;;;;;;;1999.90;999.90;;;;;;;-3.25;100.00;102386.19;1659555;85;21216;-86
2021/01/03 00:56:28;;;;;;;1999.90;999.90;;;;;;;-3.27;100.00;102393.13;1661797;84;21176;-86
2021/01/03 00:58:56;;;;;;;1999.90;999.90;;;;;;;-3.32;100.00;102394.67;1660041;85;21239;-86
2021/01/03 01:01:23;;;;;;;1999.90;999.90;;;;;;;-3.35;100.00;102385.54;1663332;85;21353;-86
2021/01/03 01:03:51;;;;;;;1999.90;999.90;;;;;;;-3.36;100.00;102389.27;1663353;85;21157;-84
2021/01/03 01:06:19;;;;;;;1999.90;999.90;;;;;;;-3.29;100.00;102397.03;1658766;85;21121;-87
2021/01/03 01:08:47;;;;;;;1999.90;999.90;;;;;;;-3.27;100.00;102386.88;1660329;84;21195;-85
2021/01/03 01:11:15;;;;;;;1999.90;999.90;;;;;;;-3.27;100.00;102390.94;1659241;84;21144;-86
2021/01/03 01:13:43;;;;;;;1999.90;999.90;;;;;;;-3.27;100.00;102395.00;1659031;85;21412;-86
2021/01/03 01:16:11;;;;;;;1999.90;999.90;;;;;;;-3.25;100.00;102391.61;1662695;85;21147;-86
2021/01/03 01:18:39;;;;;;;1999.90;999.90;;;;;;;-3.23;100.00;102392.79;1657795;85;21623;-85
2021/01/03 01:21:07;;;;;;;1999.90;999.90;;;;;;;-3.25;100.00;102396.52;1658935;85;21191;-86
2021/01/03 01:23:35;;;;;;;1999.90;999.90;;;;;;;-3.20;100.00;102397.86;1657730;85;21880;-86
2021/01/03 01:26:04;;;;;;;1999.90;999.90;;;;;;;-3.18;100.00;102403.95;1655233;85;21223;-85
2021/01/03 01:28:32;;;;;;;1999.90;999.90;;;;;;;-3.13;100.00;102394.28;1653130;85;22261;-86
2021/01/03 01:31:01;;;;;;;1999.90;999.90;;;;;;;-3.13;100.00;102402.92;1672146;85;21561;-86
2021/01/03 01:33:29;;;;;;;1999.90;999.90;;;;;;;-3.17;100.00;102405.12;1665481;84;21663;-85
2021/01/03 01:35:57;;;;;;;1999.90;999.90;;;;;;;-3.15;100.00;102399.03;1674074;83;21241;-87
2021/01/03 01:38:25;;;;;;;1999.90;999.90;;;;;;;-3.12;100.00;102397.84;1669434;84;21370;-86
2021/01/03 01:40:54;;;;;;;1999.90;999.90;;;;;;;-3.08;100.00;102396.47;1669468;84;21210;-85
2021/01/03 01:43:21;;;;;;;1999.90;999.90;;;;;;;-3.04;100.00;102401.88;1668535;84;21206;-86
2021/01/03 01:45:49;;;;;;;1999.90;999.90;;;;;;;-3.02;100.00;102401.19;1669207;84;21136;-85
2021/01/03 01:48:21;;;;;;;1999.90;999.90;;;;;;;-3.01;100.00;102392.05;1663614;85;21187;-86
2021/01/03 01:50:56;;;;;;;1999.90;999.90;;;;;;;-2.93;100.00;102395.57;1659462;85;21408;-86
2021/01/03 01:53:36;;;;;;;1999.90;999.90;;;;;;;-2.85;100.00;102392.49;1656664;85;21172;-86
2021/01/03 01:56:21;;;;;;;1999.90;999.90;;;;;;;-2.79;100.00;102398.56;1638647;85;21163;-85
2021/01/03 01:59:16;;;;;;;1999.90;999.90;;;;;;;-2.73;100.00;102396.50;1663825;84;21128;-86
2021/01/03 02:02:07;;;;;;;1999.90;999.90;;;;;;;-2.67;100.00;102403.93;1658989;84;21179;-85
2021/01/03 02:04:52;;;;;;;1999.90;999.90;;;;;;;-2.67;100.00;102403.93;1673244;84;21407;-85
2021/01/03 02:07:29;;;;;;;1999.90;999.90;;;;;;;-2.69;100.00;102400.55;1667704;84;21112;-84
2021/01/03 02:10:09;;;;;;;1999.90;999.90;;;;;;;-2.71;100.00;102403.95;1668894;84;21638;-83
2021/01/03 02:12:40;;;;;;;1999.90;999.90;;;;;;;-2.74;100.00;102402.95;1651941;85;21176;-86
2021/01/03 02:15:13;;;;;;;1999.90;999.90;;;;;;;-2.76;100.00;102411.77;1668247;85;21149;-84
2021/01/03 02:17:44;;;;;;;1999.90;999.90;;;;;;;-2.75;100.00;102414.81;1663103;85;21229;-86
2021/01/03 02:20:14;;;;;;;1999.90;999.90;;;;;;;-2.75;100.00;102405.32;1662055;84;21089;-85
2021/01/03 02:22:56;;;;;;;1999.90;999.90;;;;;;;-2.70;100.00;102407.00;1880184;75;28618;-64
2021/01/03 02:25:23;;;;;;;1999.90;999.90;;;;;;;-2.77;100.00;102410.08;1838157;77;21162;-62
2021/01/03 02:28:14;;;;;;;1999.90;999.90;;;;;;;-2.75;100.00;102407.52;1817384;78;21369;-62
2021/01/03 02:30:46;;;;;;;1999.90;999.90;;;;;;;-2.72;100.00;102407.68;1819324;78;21115;-63
2021/01/03 02:33:26;;;;;;;1999.90;999.90;;;;;;;-2.70;100.00;102402.93;1781370;80;20996;-65
2021/01/03 02:36:00;;;;;;;1999.90;999.90;;;;;;;-2.63;100.00;102412.89;1751417;81;20988;-62
2021/01/03 02:38:29;;;;;;;1999.90;999.90;;;;;;;-2.57;100.00;102409.98;1741737;82;21084;-64
2021/01/03 02:40:57;;;;;;;1999.90;999.90;;;;;;;-2.54;100.00;102415.05;1761832;80;21359;-64
2021/01/03 02:43:25;;;;;;;1999.90;999.90;;;;;;;-2.52;100.00;102405.38;1775720;80;21546;-62
2021/01/03 02:45:53;;;;;;;1999.90;999.90;;;;;;;-2.49;100.00;102405.03;1765398;80;20965;-64
2021/01/03 02:48:22;;;;;;;1999.90;999.90;;;;;;;-2.47;100.00;102402.47;1711694;80;21127;-65
2021/01/03 02:50:50;;;;;;;1999.90;999.90;;;;;;;-2.44;100.00;102410.25;1759722;80;21234;-62
2021/01/03 02:53:19;;;;;;;1999.90;999.90;;;;;;;-2.41;100.00;102397.70;1762102;80;21214;-63
2021/01/03 02:55:47;;;;;;;1999.90;999.90;;;;;;;-2.38;100.00;102410.05;1766196;80;21202;-65
2021/01/03 02:58:15;;;;;;;1999.90;999.90;;;;;;;-2.38;100.00;102410.90;1766357;80;21008;-62
2021/01/03 03:00:42;;;;;;;1999.90;999.90;;;;;;;-2.38;100.00;102414.12;1773778;80;21158;-66
2021/01/03 03:03:10;;;;;;;1999.90;999.90;;;;;;;-2.37;100.00;102411.23;1770756;80;21781;-62
2021/01/03 03:05:38;;;;;;;1999.90;999.90;;;;;;;-2.38;100.00;102410.90;1769705;80;21379;-65
2021/01/03 03:08:06;;;;;;;1999.90;999.90;;;;;;;-2.35;100.00;102411.05;1771559;80;21036;-66
2021/01/03 03:10:34;;;;;;;1999.90;999.90;;;;;;;-2.29;100.00;102415.25;1768703;80;21677;-63
2021/01/03 03:13:02;;;;;;;1999.90;999.90;;;;;;;-2.27;100.00;102414.56;1767929;80;21096;-63
2021/01/03 03:15:33;;;;;;;1999.90;999.90;;;;;;;-2.24;100.00;102420.65;1767359;80;21076;-60
2021/01/03 03:18:01;;;;;;;1999.90;999.90;;;;;;;-2.23;100.00;102414.20;1772974;80;21427;-63
2021/01/03 03:20:29;;;;;;;1999.90;999.90;;;;;;;-2.25;100.00;102414.38;1776189;80;21041;-59
2021/01/03 03:22:56;;;;;;;1999.90;999.90;;;;;;;-2.20;100.00;102421.47;1772612;80;20976;-59
2021/01/03 03:25:25;;;;;;;1999.90;999.90;;;;;;;-2.16;100.00;102420.09;1781787;80;20992;-61
2021/01/03 03:27:52;;;;;;;1999.90;999.90;;;;;;;-2.15;100.00;102419.58;1761229;80;21079;-60
2021/01/03 03:30:21;;;;;;;1999.90;999.90;;;;;;;-2.12;100.00;102421.92;1763465;80;21271;-60
2021/01/03 03:32:52;;;;;;;1999.90;999.90;;;;;;;-2.10;100.00;102419.37;1757845;81;21574;-61
2021/01/03 03:35:31;;;;;;;1999.90;999.90;;;;;;;-2.10;100.00;102415.81;1757012;80;20968;-61
2021/01/03 03:37:58;;;;;;;1999.90;999.90;;;;;;;-2.09;100.00;102416.14;1756892;81;21127;-61
2021/01/03 03:40:27;;;;;;;1999.90;999.90;;;;;;;-2.06;100.00;102431.55;1752544;81;21335;-62
2021/01/03 03:42:55;;;;;;;1999.90;999.90;;;;;;;-2.05;100.00;102426.45;1759536;80;21414;-61
2021/01/03 03:45:23;;;;;;;1999.90;999.90;;;;;;;-2.00;100.00;102428.62;1758686;80;21133;-60
2021/01/03 03:47:50;;;;;;;1999.90;999.90;;;;;;;-1.97;100.00;102426.91;1755568;81;20996;-61
2021/01/03 03:50:21;;;;;;;1999.90;999.90;;;;;;;-1.96;100.00;102434.03;1758055;80;21040;-61
2021/01/03 03:52:49;;;;;;;1999.90;999.90;;;;;;;-1.98;100.00;102439.63;1758675;80;20977;-61
2021/01/03 03:55:17;;;;;;;1999.90;999.90;;;;;;;-1.96;100.00;102433.52;1764902;80;21389;-60
2021/01/03 03:57:45;;;;;;;1999.90;999.90;;;;;;;-1.90;100.00;102436.02;1759239;81;21126;-60
2021/01/03 04:00:19;;;;;;;1999.90;999.90;;;;;;;-1.85;100.00;102439.03;1763209;80;21561;-60
2021/01/03 04:02:47;;;;;;;1999.90;999.90;;;;;;;-1.81;100.00;102448.50;1763116;80;21097;-60
2021/01/03 04:05:21;;;;;;;1999.90;999.90;;;;;;;-1.81;100.00;102440.88;1754493;80;21012;-62
2021/01/03 04:07:50;;;;;;;1999.90;999.90;;;;;;;-1.80;100.00;102446.13;1762062;81;22146;-63
2021/01/03 04:10:19;;;;;;;1999.90;999.90;;;;;;;-1.80;100.00;102443.41;1778308;80;21004;-63
2021/01/03 04:12:47;;;;;;;1999.90;999.90;;;;;;;-1.77;100.00;102443.55;1776571;80;21024;-63
2021/01/03 04:15:16;;;;;;;1999.90;999.90;;;;;;;-1.79;100.00;102445.61;1772964;80;21147;-63
2021/01/03 04:17:44;;;;;;;1999.90;999.90;;;;;;;-1.80;100.00;102440.69;1779955;80;20929;-64
2021/01/03 04:20:16;;;;;;;1999.90;999.90;;;;;;;-1.76;100.00;102450.16;1777090;80;21371;-62
2021/01/03 04:22:52;;;;;;;1999.90;999.90;;;;;;;-1.65;100.00;102439.39;1826227;76;22688;-60
2021/01/03 04:25:20;;;;;;;1999.90;999.90;;;;;;;-1.72;100.00;102439.27;1801145;79;20976;-60
2021/01/03 04:27:48;;;;;;;1999.90;999.90;;;;;;;-1.74;100.00;102442.68;1788654;79;22253;-61
2021/01/03 04:30:17;;;;;;;1999.90;999.90;;;;;;;-1.70;100.00;102441.29;1788285;78;20964;-60
2021/01/03 04:32:44;;;;;;;1999.90;999.90;;;;;;;-1.66;100.00;102449.92;1785217;79;20953;-60
2021/01/03 04:35:12;;;;;;;1999.90;999.90;;;;;;;-1.65;100.00;102448.89;1791794;78;20988;-60
2021/01/03 04:37:40;;;;;;;1999.90;999.90;;;;;;;-1.62;100.00;102451.23;1785596;78;20969;-61
2021/01/03 04:40:20;;;;;;;1999.90;999.90;;;;;;;-1.56;100.00;102457.30;1791082;79;21368;-62
2021/01/03 04:42:54;;;;;;;1999.90;999.90;;;;;;;-1.51;100.00;102458.95;1788366;79;21012;-63
2021/01/03 04:45:37;;;;;;;1999.90;999.90;;;;;;;-1.50;100.00;102455.21;1780799;79;20988;-62
2021/01/03 04:48:09;;;;;;;1999.90;999.90;;;;;;;-1.47;100.00;102449.41;1788674;78;21544;-63
2021/01/03 04:51:05;;;;;;;1999.90;999.90;;;;;;;-1.36;100.00;102455.77;1869839;75;22679;-63
2021/01/03 04:53:53;;;;;;;1999.90;999.90;;;;;;;-1.41;100.00;102450.04;1822909;76;21083;-62
2021/01/03 04:56:38;;;;;;;1999.90;999.90;;;;;;;-1.36;100.00;102448.13;1834036;76;21920;-64
2021/01/03 04:59:40;;;;;;;1999.90;999.90;;;;;;;-1.35;100.00;102452.53;1836451;76;21126;-62
2021/01/03 05:02:46;;;;;;;1999.90;999.90;;;;;;;-1.36;100.00;102449.48;1842091;76;21119;-63
2021/01/03 05:05:34;;;;;;;1999.90;999.90;;;;;;;-1.33;100.00;102450.48;1839459;76;21522;-62
2021/01/03 05:08:25;;;;;;;1999.90;999.90;;;;;;;-1.33;100.00;102458.11;1847501;77;20949;-64
2021/01/03 05:10:53;;;;;;;1999.90;999.90;;;;;;;-1.33;100.00;102449.12;1849353;76;21354;-64
2021/01/03 05:13:30;;;;;;;1999.90;999.90;;;;;;;-1.30;100.00;102454.19;1843930;76;21115;-64
2021/01/03 05:15:57;;;;;;;1999.90;999.90;;;;;;;-1.26;100.00;102465.53;1839442;76;20953;-64
2021/01/03 05:18:25;;;;;;;1999.90;999.90;;;;;;;-1.26;100.00;102465.02;1838151;76;21077;-64
2021/01/03 05:20:57;;;;;;;1999.90;999.90;;;;;;;-1.26;100.00;102479.11;1843427;76;21539;-67
2021/01/03 05:23:27;;;;;;;1999.90;999.90;;;;;;;-1.28;100.00;102472.50;1850114;77;21342;-63
2021/01/03 05:25:55;;;;;;;1999.90;999.90;;;;;;;-1.21;100.00;102484.33;1845420;76;20913;-63
2021/01/03 05:28:28;;;;;;;1999.90;999.90;;;;;;;-1.20;100.00;102485.16;1842920;76;21091;-63
2021/01/03 05:31:21;;;;;;;1999.90;999.90;;;;;;;-1.15;100.00;102482.23;1857400;75;29002;-60
2021/01/03 05:34:03;;;;;;;1999.90;999.90;;;;;;;-1.15;100.00;102493.09;1809603;78;21010;-62
2021/01/03 05:36:47;;;;;;;1999.90;999.90;;;;;;;-1.11;100.00;102494.42;1814664;78;21385;-63
2021/01/03 05:39:23;;;;;;;1999.90;999.90;;;;;;;-1.10;100.00;102493.39;1811572;78;20963;-62
2021/01/03 05:42:06;;;;;;;1999.90;999.90;;;;;;;-1.09;100.00;102504.59;1809842;78;21583;-62
2021/01/03 05:44:37;;;;;;;1999.90;999.90;;;;;;;-1.09;100.00;102508.66;1777372;79;21544;-63
2021/01/03 05:47:24;;;;;;;1999.90;999.90;;;;;;;-1.08;100.00;102507.63;1736986;81;20994;-62
2021/01/03 05:50:24;;;;;;;1999.90;999.90;;;;;;;-1.06;100.00;102506.94;1766411;80;21381;-61
2021/01/03 05:53:08;;;;;;;1999.90;999.90;;;;;;;-0.98;100.00;102506.86;1853379;75;27771;-60
2021/01/03 05:55:37;;;;;;;1999.90;999.90;;;;;;;-0.94;100.00;102507.84;1842238;77;21510;-60
2021/01/03 05:58:30;;;;;;;1999.90;999.90;;;;;;;-0.86;100.00;102509.13;1840744;77;21196;-61
2021/01/03 06:01:22;;;;;;;1999.90;999.90;;;;;;;-0.83;100.00;102516.91;1840125;76;20964;-60
2021/01/03 06:04:03;;;;;;;1999.90;999.90;;;;;;;-0.86;100.00;102515.92;1840624;77;20960;-60
2021/01/03 06:06:52;;;;;;;1999.90;999.90;;;;;;;-0.87;100.00;102525.95;1845600;77;21083;-60
2021/01/03 06:09:23;;;;;;;1999.90;999.90;;;;;;;-0.89;100.00;102518.49;1839993;77;21511;-62
2021/01/03 06:12:06;;;;;;;1999.90;999.90;;;;;;;-0.87;100.00;102523.74;1845573;77;21375;-63
2021/01/03 06:14:35;;;;;;;1999.90;999.90;;;;;;;-0.89;100.00;102527.16;1853304;77;21555;-64
2021/01/03 06:17:19;;;;;;;1999.90;999.90;;;;;;;-0.89;100.00;102523.09;1845171;77;21615;-64
2021/01/03 06:19:51;;;;;;;1999.90;999.90;;;;;;;-0.92;100.00;102522.09;1832176;76;21107;-63
2021/01/03 06:22:45;;;;;;;1999.90;999.90;;;;;;;-0.94;100.00;102530.95;1843757;77;20937;-64
2021/01/03 06:25:44;;;;;;;1999.90;999.90;;;;;;;-0.91;100.00;102539.58;1842465;77;21199;-65
2021/01/03 06:28:26;;;;;;;1999.90;999.90;;;;;;;-0.89;100.00;102532.08;1845809;77;20972;-63
2021/01/03 06:31:24;;;;;;;1999.90;999.90;;;;;;;-0.86;100.00;102537.67;1838750;76;20969;-62
2021/01/03 06:34:25;;;;;;;1999.90;999.90;;;;;;;-0.86;100.00;102541.74;1844094;77;21121;-64
2021/01/03 06:37:12;;;;;;;1999.90;999.90;;;;;;;-0.80;100.00;102543.20;1836247;76;20925;-64
2021/01/03 06:40:01;;;;;;;1999.90;999.90;;;;;;;-0.76;100.00;102540.96;1842972;76;21383;-62
2021/01/03 06:42:46;;;;;;;1999.90;999.90;;;;;;;-0.72;100.00;102540.92;1843680;77;21543;-63
2021/01/03 06:45:42;;;;;;;1999.90;999.90;;;;;;;-0.68;100.00;102545.80;1835845;76;20961;-62
2021/01/03 06:48:25;;;;;;;1999.90;999.90;;;;;;;-0.64;100.00;102547.63;1837314;77;21083;-64
2021/01/03 06:51:30;;;;;;;1999.90;999.90;;;;;;;-0.58;100.00;102550.12;1837068;77;21095;-64
2021/01/03 06:54:30;;;;;;;1999.90;999.90;;;;;;;-0.56;100.00;102547.55;1851389;77;21328;-62
2021/01/03 06:57:39;;;;;;;1999.90;999.90;;;;;;;-0.50;100.00;102545.95;1846829;76;21118;-64
2021/01/03 07:00:19;;;;;;;1999.90;999.90;;;;;;;-0.53;100.00;102548.53;1837177;76;21126;-65
2021/01/03 07:02:58;;;;;;;1999.90;999.90;;;;;;;-0.50;100.00;102542.72;1844939;77;21081;-63
2021/01/03 07:05:26;;;;;;;1999.90;999.90;;;;;;;-0.47;100.00;102542.86;1795714;77;21071;-64
2021/01/03 07:08:07;;;;;;;1999.90;999.90;;;;;;;-0.41;100.00;102543.47;1837723;77;21356;-63
2021/01/03 07:10:42;;;;;;;1999.90;999.90;;;;;;;-0.39;100.00;102542.25;1799783;77;21562;-65
2021/01/03 07:13:33;;;;;;;1999.90;999.90;;;;;;;-0.34;100.00;102543.05;1846234;77;20972;-62
2021/01/03 07:16:01;;;;;;;1999.90;999.90;;;;;;;-0.29;100.00;102539.76;1842661;77;20995;-63
2021/01/03 07:18:49;;;;;;;1999.90;999.90;;;;;;;-0.24;100.00;102531.87;1839935;77;20949;-63
2021/01/03 07:21:22;;;;;;;1999.90;999.90;;;;;;;-0.22;100.00;102526.56;1820546;77;21378;-64
2021/01/03 07:23:53;;;;;;;1999.90;999.90;;;;;;;-0.16;100.00;102537.22;1828239;76;20991;-65
2021/01/03 07:26:30;;;;;;;1999.90;999.90;;;;;;;-0.12;100.00;102540.73;1814031;77;21110;-64
2021/01/03 07:29:15;;;;;;;1999.90;999.90;;;;;;;-0.10;100.00;102539.18;1843928;77;21094;-65
2021/01/03 07:32:04;;;;;;;1999.90;999.90;;;;;;;-0.08;100.00;102546.13;1774335;80;21213;-65
2021/01/03 07:34:35;;;;;;;1999.90;999.90;;;;;;;-0.04;100.00;102550.66;1782596;79;21380;-66
2021/01/03 07:37:25;;;;;;;1999.90;999.90;;;;;;;0.04;100.00;102549.23;1779033;78;21439;-65
2021/01/03 07:40:13;;;;;;;1999.90;999.90;;;;;;;0.08;100.00;102554.63;1787865;78;21178;-65
2021/01/03 07:42:50;;;;;;;1999.90;999.90;;;;;;;0.12;100.00;102555.92;1805518;78;20961;-63
2021/01/03 07:45:34;;;;;;;1999.90;999.90;;;;;;;0.18;100.00;102555.68;1805938;78;20961;-66
2021/01/03 07:48:02;;;;;;;1999.90;999.90;;;;;;;0.22;100.00;102564.64;1802293;78;21378;-62
2021/01/03 07:50:39;;;;;;;1999.90;999.90;;;;;;;0.24;100.00;102554.40;1795771;78;21198;-64
2021/01/03 07:53:36;;;;;;;1999.90;999.90;;;;;;;0.27;100.00;102561.34;1776074;80;21120;-63
2021/01/03 07:56:18;;;;;;;1999.90;999.90;;;;;;;0.31;100.00;102570.81;1799821;78;20937;-63
2021/01/03 07:58:52;;;;;;;1999.90;999.90;;;;;;;0.32;100.00;102580.67;1788474;79;21004;-65
2021/01/03 08:01:20;;;;;;;1999.90;999.90;;;;;;;0.34;100.00;102579.13;1809276;77;21440;-63
2021/01/03 08:03:48;;;;;;;1999.90;999.90;;;;;;;0.37;100.00;102588.27;1809412;78;21179;-63
2021/01/03 08:06:16;;;;;;;1999.90;999.90;;;;;;;0.36;100.00;102588.79;1789381;79;21544;-66
2021/01/03 08:08:53;;;;;;;1999.90;999.90;;;;;;;0.37;100.00;102587.75;1804271;78;21098;-66
2021/01/03 08:11:38;;;;;;;1999.90;999.90;;;;;;;0.41;100.00;102584.12;1782312;79;21574;-67
2021/01/03 08:14:12;;;;;;;1999.90;999.90;;;;;;;0.43;100.00;102589.71;1807068;78;21383;-66
2021/01/03 08:16:40;;;;;;;1999.90;999.90;;;;;;;0.50;100.00;102591.14;1810890;77;21088;-64
2021/01/03 08:19:09;;;;;;;1999.90;999.90;;;;;;;0.53;100.00;102590.77;1807591;77;20988;-64
2021/01/03 08:21:40;;;;;;;1999.90;999.90;;;;;;;0.55;100.00;102590.89;1754060;80;21376;-66
2021/01/03 08:24:16;;;;;;;1999.90;999.90;;;;;;;0.61;100.00;102587.91;1807194;77;21517;-68
2021/01/03 08:26:48;;;;;;;1999.90;999.90;;;;;;;0.64;100.00;102595.19;1807644;77;21365;-67
2021/01/03 08:29:43;;;;;;;1999.90;999.90;;;;;;;0.68;100.00;102592.92;1807198;78;21131;-65
2021/01/03 08:32:21;;;;;;;1999.90;999.90;;;;;;;0.74;100.00;102592.66;1771803;79;20988;-63
2021/01/03 08:34:48;;;;;;;1999.90;999.90;;;;;;;0.78;100.00;102587.14;1779150;77;21096;-63
2021/01/03 08:37:21;;;;;;;1999.90;999.90;;;;;;;0.80;100.00;102586.43;1785755;80;21522;-63
2021/01/03 08:39:50;;;;;;;1999.90;999.90;;;;;;;0.83;100.00;102590.13;1779609;79;21562;-61
2021/01/03 08:42:35;;;;;;;1999.90;999.90;;;;;;;0.88;100.00;102588.51;1814929;77;21024;-63
2021/01/03 08:45:21;;;;;;;1999.90;999.90;;;;;;;0.99;100.00;102591.75;1867578;75;22784;-64
2021/01/03 08:47:49;;;;;;;1999.90;999.90;;;;;;;0.97;100.00;102589.22;1840917;77;20955;-64
2021/01/03 08:50:24;;;;;;;1999.90;999.90;;;;;;;1.02;100.00;102590.00;1776095;77;22281;-62
2021/01/03 08:53:10;;;;;;;1999.90;999.90;;;;;;;1.05;100.00;102584.15;1841098;77;20937;-61
2021/01/03 08:55:39;;;;;;;1999.90;999.90;;;;;;;1.08;100.00;102578.30;1847966;77;20965;-65
2021/01/03 08:58:17;;;;;;;1999.90;999.90;;;;;;;1.11;100.00;102579.27;1844491;77;21016;-68
2021/01/03 09:00:48;;;;;;;1999.90;999.90;;;;;;;1.16;100.00;102581.73;1840714;77;20984;-66
2021/01/03 09:03:20;;;;;;;1999.90;999.90;;;;;;;1.20;100.00;102577.57;1772446;79;21585;-63
2021/01/03 09:05:49;;;;;;;1999.90;999.90;;;;;;;1.25;100.00;102567.43;1778238;78;20996;-70
2021/01/03 09:08:35;;;;;;;1999.90;999.90;;;;;;;1.29;100.00;102575.54;1801020;77;20986;-62
2021/01/03 09:11:13;;;;;;;1999.90;999.90;;;;;;;1.29;100.00;102576.39;1804587;78;21155;-61
2021/01/03 09:13:50;;;;;;;1999.90;999.90;;;;;;;1.32;100.00;102569.69;1802870;78;21056;-68
2021/01/03 09:16:26;;;;;;;1999.90;999.90;;;;;;;1.36;100.00;102566.04;1805336;79;21371;-68
2021/01/03 09:19:41;;;;;;;1999.90;999.90;;;;;;;1.43;100.00;102564.20;1827188;76;22689;-64
2021/01/03 09:22:09;;;;;;;1999.90;999.90;;;;;;;1.39;100.00;102565.64;1794070;79;20929;-66
2021/01/03 09:24:39;;;;;;;1999.90;999.90;;;;;;;1.34;100.00;102553.97;1797084;79;22350;-64
2021/01/03 09:27:06;;;;;;;1999.90;999.90;;;;;;;1.32;100.00;102548.39;1800932;77;21016;-66
2021/01/03 09:29:39;;;;;;;1999.90;999.90;;;;;;;1.31;100.00;102554.36;1750588;79;20981;-66
2021/01/03 09:32:29;;;;;;;1999.90;999.90;;;;;;;1.32;100.00;102549.23;1792819;79;20996;-66
2021/01/03 09:35:08;;;;;;;1999.90;999.90;;;;;;;1.33;100.00;102545.98;1796891;79;21558;-70
2021/01/03 09:37:38;;;;;;;1999.90;999.90;;;;;;;1.33;100.00;102548.19;1772619;79;21444;-60
2021/01/03 09:40:29;;;;;;;1999.90;999.90;;;;;;;1.32;100.00;102547.86;1800759;78;21653;-64
2021/01/03 09:43:24;;;;;;;1999.90;999.90;;;;;;;1.28;100.00;102547.94;1726458;79;21498;-59
2021/01/03 09:46:03;;;;;;;1999.90;999.90;;;;;;;1.27;100.00;102543.52;1793228;79;21401;-61
2021/01/03 09:48:37;;;;;;;1999.90;999.90;;;;;;;1.27;100.00;102546.25;1788029;79;21590;-60
2021/01/03 09:51:32;;;;;;;1999.90;999.90;;;;;;;1.28;100.00;102539.75;1795739;79;21376;-64
2021/01/03 09:54:13;;;;;;;1999.90;999.90;;;;;;;1.28;100.00;102535.66;1793241;79;21012;-61
2021/01/03 09:56:41;;;;;;;1999.90;999.90;;;;;;;1.27;100.00;102529.89;1776230;79;21108;-61
2021/01/03 09:59:17;;;;;;;1999.90;999.90;;;;;;;1.27;100.00;102529.37;1791154;79;21123;-59
2021/01/03 10:01:46;;;;;;;1999.90;999.90;;;;;;;1.25;100.00;102525.99;1792794;79;21109;-59
2021/01/03 10:04:22;;;;;;;1999.90;999.90;;;;;;;1.29;100.00;102530.53;1794335;79;22147;-61
2021/01/03 10:07:24;;;;;;;1999.90;999.90;;;;;;;1.31;100.00;102522.14;1790273;79;21106;-62
2021/01/03 10:10:01;;;;;;;1999.90;999.90;;;;;;;1.32;100.00;102520.58;1792493;79;21102;-63
2021/01/03 10:12:33;;;;;;;1999.90;999.90;;;;;;;1.32;100.00;102524.67;1788548;79;20984;-61
2021/01/03 10:15:21;;;;;;;1999.90;999.90;;;;;;;1.32;100.00;102521.95;1797701;79;20929;-62
2021/01/03 10:18:08;;;;;;;1999.90;999.90;;;;;;;1.32;100.00;102526.04;1796582;78;21367;-61
2021/01/03 10:20:49;;;;;;;1999.90;999.90;;;;;;;1.32;100.00;102526.56;1808663;78;21004;-63
2021/01/03 10:23:40;;;;;;;1999.90;999.90;;;;;;;1.34;100.00;102533.50;1802977;78;21051;-62
2021/01/03 10:26:32;;;;;;;1999.90;999.90;;;;;;;1.34;100.00;102537.59;1799718;78;21407;-63
2021/01/03 10:29:00;;;;;;;1999.90;999.90;;;;;;;1.37;100.00;102533.62;1800925;78;20944;-62
2021/01/03 10:31:44;;;;;;;1999.90;999.90;;;;;;;1.35;100.00;102535.19;1802417;78;21363;-62
2021/01/03 10:34:14;;;;;;;1999.90;999.90;;;;;;;1.36;100.00;102537.40;1795281;78;21522;-62
2021/01/03 10:36:41;;;;;;;1999.90;999.90;;;;;;;1.35;100.00;102539.28;1797021;78;20976;-62
2021/01/03 10:39:10;;;;;;;1999.90;999.90;;;;;;;1.32;99.59;102534.22;1804633;78;20961;-62
2021/01/03 10:41:38;;;;;;;1999.90;999.90;;;;;;;1.29;99.17;102534.63;1801524;78;21075;-61
2021/01/03 10:44:08;;;;;;;1999.90;999.90;;;;;;;1.27;98.94;102543.52;1805924;78;21343;-63
2021/01/03 10:46:40;;;;;;;1999.90;999.90;;;;;;;1.23;98.97;102530.80;1797441;78;21008;-62
2021/01/03 10:49:08;;;;;;;1999.90;999.90;;;;;;;1.19;98.62;102536.34;1806479;78;21495;-62
2021/01/03 10:51:42;;;;;;;1999.90;999.90;;;;;;;1.17;98.37;102532.13;1805102;78;20968;-61
2021/01/03 10:54:17;;;;;;;1999.90;999.90;;;;;;;1.14;97.95;102531.16;1802793;78;21518;-62
2021/01/03 10:56:49;;;;;;;1999.90;999.90;;;;;;;1.13;97.83;102537.65;1797838;78;21369;-61
2021/01/03 10:59:16;;;;;;;1999.90;999.90;;;;;;;1.11;97.87;102540.58;1805595;78;21390;-62
2021/01/03 11:01:45;;;;;;;1999.90;999.90;;;;;;;1.11;97.56;102540.58;1796943;78;20960;-62
2021/01/03 11:04:13;;;;;;;1999.90;999.90;;;;;;;1.11;97.53;102539.73;1801301;78;21071;-62
2021/01/03 11:06:44;;;;;;;1999.90;999.90;;;;;;;1.08;96.69;102538.77;1777847;79;20929;-61
2021/01/03 11:09:21;;;;;;;1999.90;999.90;;;;;;;1.04;96.25;102530.66;1807965;78;21334;-62
2021/01/03 11:11:50;;;;;;;1999.90;999.90;;;;;;;1.03;96.39;102530.33;1796724;78;21545;-62
2021/01/03 11:14:18;;;;;;;1999.90;999.90;;;;;;;1.03;95.92;102528.45;1806160;78;20975;-62
2021/01/03 11:16:45;;;;;;;1999.90;999.90;;;;;;;1.02;95.46;102530.01;1797367;78;21399;-61
2021/01/03 11:19:15;;;;;;;1999.90;999.90;;;;;;;1.01;95.61;102531.05;1805555;78;21541;-62